1959 Tropical Cyclone NOT_NAMED (1959075S14107)


IBTrACS version v04r00. Visit IBTrACS website for data access.
Please direct all questions to the IBTrACS Q and A forum

Storm track - Intensity - Wind Radii - Intensity Data - Source Data - All data

Summary Information

Storm ID 1959075S14107
Start Mar 16 01Z
Max Intensity 60 kt (Mar 20 00Z), 980 mb (Mar 20 00Z)
End Mar 22 01Z
ATCF IDs ,SH271959
Track status Best track data.

Storm track plot

Map of storm track

Intensity plots

Map of storm track

Radial wind information

No radial wind information for this storm


Position and Intensity Table

BASIN ISO_TIME_________ NATURE LAT LON WMO PRES BOM PRES DS824 WIND DS824 PRES
degrees north degrees east mb mb kts mb
SI 1959-03-16 01:00:00 NR -14.00 107.00 1004 1004
SI 03:00:00 NR -13.81 106.61
SI 06:00:00 NR -13.53 106.04
SI 09:00:00 NR -13.30 105.52
SI 12:00:00 NR -13.14 105.10
SI 15:00:00 NR -13.09 104.79
SI 18:00:00 NR -13.16 104.62
SI 21:00:00 NR -13.40 104.64
SI 23:00:00 NR -13.70 105.17
SI 1959-03-17 00:00:00 TS -14.00 105.71 20 1004
SI 01:00:00 TS -14.27 105.94 1004 1004
SI 03:00:00 TS -14.77 106.16
SI 06:00:00 TS -15.49 106.52
SI 09:00:00 TS -16.16 107.11
SI 11:00:00 TS -16.56 107.64
SI 12:00:00 TS -16.75 107.95
SI 15:00:00 TS -17.28 109.01
SI 15:30:00 TS -17.35 109.20
SI 18:00:00 TS -17.62 110.17
SI 21:00:00 TS -17.73 111.27
SI 23:00:00 TS -17.65 111.96
SI 1959-03-18 00:00:00 TS -17.57 112.29
SI 01:00:00 TS -17.47 112.62 1004 1004
SI 03:00:00 TS -17.18 113.26
SI 06:00:00 TS -16.58 114.05
SI 09:00:00 TS -15.89 114.55
SI 11:00:00 TS -15.39 114.69
SI 12:00:00 TS -15.11 114.71
SI 13:00:00 TS -14.82 114.69
SI 15:00:00 TS -14.20 114.55
SI 18:00:00 TS -13.29 114.13
SI 21:00:00 TS -12.49 113.59
SI 23:00:00 TS -12.16 113.17
SI 1959-03-19 00:00:00 TS -12.10 112.94 20 1004
SI 01:00:00 TS -12.13 112.71 1004 1004
SI 03:00:00 TS -12.39 112.19
SI 06:00:00 TS -13.13 111.42
SI 07:00:00 TS -13.43 111.19
SI 09:00:00 TS -14.10 110.81
SI 11:00:00 TS -14.87 110.50
SI 12:00:00 TS -15.26 110.39
SI 15:00:00 TS -16.53 110.12
SI 18:00:00 TS -17.76 109.92
SI 20:00:00 TS -18.48 109.77
SI 21:00:00 TS -18.81 109.68
SI 23:00:00 TS -19.38 109.50
SI 1959-03-20 00:00:00 TS -19.62 109.42 60 980
SI 01:00:00 TS -19.81 109.36 980 980
SI 03:00:00 TS -20.12 109.26 990
SI 04:00:00 TS -20.25 109.21 995 995
SI 06:00:00 TS -20.47 109.09
SI 09:00:00 TS -20.76 108.85
SI 11:00:00 TS -20.93 108.65
SI 12:00:00 TS -21.01 108.55
SI 15:00:00 TS -21.26 108.19
SI 18:00:00 TS -21.47 107.81
SI 21:00:00 TS -21.65 107.43
SI 23:00:00 TS -21.76 107.17
SI 1959-03-21 00:00:00 TS -21.81 107.05 30 1000
SI 01:00:00 TS -21.86 106.93 1000 1000
SI 03:00:00 TS -21.95 106.69
SI 06:00:00 TS -22.08 106.34
SI 09:00:00 TS -22.22 106.00
SI 11:00:00 TS -22.31 105.77
SI 12:00:00 TS -22.36 105.63
SI 15:00:00 TS -22.51 105.24
SI 18:00:00 TS -22.66 104.85
SI 21:00:00 TS -22.82 104.51
SI 23:00:00 TS -22.92 104.31
SI 1959-03-22 00:00:00 TS -22.96 104.29 15 1008
SI 01:00:00 NR -23.00 104.20 1008 1008

Source Information

Agency Information
USA bsh271959.txt
TOKYO
CMA
HKO
NEWDELHI
REUNION
BOM IDCKMSTM0S.csv:Line=2865:unnamed
NADI
WELLINGTON
DS824 aus_area.dat:281:NOT NAMED
TD9636 cons_worldwide_trop_cyclone_18710101-19891231-006:Line=5473
TD9635
NEUMANN
MLC

All available IBTrACS Data

SEASON BASIN SUBBASIN ISO_TIME_________ NATURE LAT LON WMO PRES WMO AGENCY DIST2LAND LANDFALL IFLAG USA AGENCY USA ATCF_ID USA LAT USA LON USA SSHS BOM LAT BOM LON BOM PRES DS824 LAT DS824 LON DS824 STAGE DS824 WIND DS824 PRES TD9636 LAT TD9636 LON TD9636 STAGE STORM SPEED STORM DIR
Year degrees north degrees east mb km km degrees north degrees east 1 degrees north degrees east mb degrees north degrees east kts mb degrees north degrees east kts degrees
1959 SI WA 1959-03-16 01:00:00 NR -14.00 107.00 1004 bom 710 693 ______O_______ -1 -14.00 107.00 1004 13 297
1959 SI WA 03:00:00 NR -13.81 106.61 695 675 ______P_______ -1 -13.81 106.61 13 297
1959 SI WA 06:00:00 NR -13.53 106.04 678 666 ______P_______ -1 -13.53 106.04 12 296
1959 SI WA 09:00:00 NR -13.30 105.52 668 654 ______P_______ -1 -13.30 105.52 10 293
1959 SI WA 12:00:00 NR -13.14 105.10 654 654 ______P_______ -1 -13.14 105.10 8 286
1959 SI WA 15:00:00 NR -13.09 104.79 662 662 ______P_______ -1 -13.09 104.79 5 268
1959 SI WA 18:00:00 NR -13.16 104.62 678 678 ______P_______ -1 -13.16 104.62 3 205
1959 SI WA 21:00:00 NR -13.40 104.64 700 697 ______P_______ -1 -13.40 104.64 9 135
1959 SI WA 23:00:00 NR -13.70 105.17 717 715 ______P___O___ -1 -13.65 104.77 -13.90 106.80 1 24 120
1959 SI WA 1959-03-17 00:00:00 TS -14.00 105.71 741 738 O_____P__OP___ jtwc_sh SH271959 -14.20 106.70 -1 -13.81 104.87 -14.00 105.10 TC 20 1004 -14.15 106.72 1 28 127
1959 SI WA 01:00:00 TS -14.27 105.94 1004 bom 767 764 P_____O__PP___ SH271959 -14.46 106.58 -1 -14.00 105.00 1004 -14.21 105.50 TC -14.40 106.64 1 18 151
1959 SI WA 03:00:00 TS -14.77 106.16 814 814 P_____P__PP___ SH271959 -14.97 106.38 -1 -14.44 105.34 -14.62 106.29 TC -14.90 106.52 1 16 156
1959 SI WA 06:00:00 TS -15.49 106.52 884 884 O_____P__PP___ jtwc_sh SH271959 -15.70 106.30 -1 -15.22 106.03 -15.21 107.48 TC -15.62 106.49 1 17 147
1959 SI WA 09:00:00 TS -16.16 107.11 951 895 P_____P__PP___ SH271959 -16.34 106.64 -1 -16.04 106.89 -15.76 108.64 TC -16.29 106.72 1 18 135
1959 SI WA 11:00:00 TS -16.56 107.64 895 856 P_____P__PO___ SH271959 -16.72 107.10 -1 -16.57 107.51 -16.09 109.39 TC -16.70 107.10 1 20 126
1959 SI WA 12:00:00 TS -16.75 107.95 856 734 O_____P__PP___ jtwc_sh SH271959 -16.90 107.40 -1 -16.81 107.84 -16.25 109.76 TC -16.89 107.36 1 22 119
1959 SI WA 15:00:00 TS -17.28 109.01 734 719 P_____P__PP___ SH271959 -17.46 108.51 -1 -17.42 108.83 -16.65 110.81 TC -17.38 108.41 1 23 117
1959 SI WA 15:30:00 TS -17.35 109.20 bom 719 623 P_____O__PP___ SH271959 -17.54 108.72 -1 -17.50 109.00 -16.71 110.97 TC -17.45 108.61 1 23 107
1959 SI WA 18:00:00 TS -17.62 110.17 623 548 O_____P__PP___ jtwc_sh SH271959 -17.80 109.80 -1 -17.84 109.79 -16.95 111.77 TC -17.71 109.69 1 22 101
1959 SI WA 21:00:00 TS -17.73 111.27 548 514 P_____P__PP___ SH271959 -17.81 110.98 -1 -18.07 110.76 -17.14 112.63 TC -17.80 111.00 1 20 91
1959 SI WA 23:00:00 TS -17.65 111.96 514 512 P_____P__PO___ SH271959 -17.64 111.74 -1 -18.09 111.39 -17.19 113.14 TC -17.70 111.80 1 20 81
1959 SI WA 1959-03-18 00:00:00 TS -17.57 112.29 512 512 O_____P__PP___ jtwc_sh SH271959 -17.50 112.10 -1 -18.06 111.70 -17.19 113.37 TC -17.60 112.16 1 20 74
1959 SI WA 01:00:00 TS -17.47 112.62 1004 bom 513 513 P_____O__PP___ SH271959 -17.35 112.49 -1 -18.00 112.00 1004 -17.18 113.58 TC -17.47 112.52 1 20 67
1959 SI WA 03:00:00 TS -17.18 113.26 513 511 P_____P__PP___ SH271959 -16.94 113.24 -1 -17.80 112.67 -17.09 113.96 TC -17.11 113.18 1 20 57
1959 SI WA 06:00:00 TS -16.58 114.05 530 528 O_____P__PP___ jtwc_sh SH271959 -16.20 114.10 -1 -17.28 113.64 -16.82 114.39 TC -16.40 114.00 1 18 44
1959 SI WA 09:00:00 TS -15.89 114.55 574 570 P_____P__PP___ SH271959 -15.48 114.56 -1 -16.58 114.43 -16.36 114.64 TC -15.57 114.54 1 16 27
1959 SI WA 11:00:00 TS -15.39 114.69 619 629 P_____P__PO___ SH271959 -14.97 114.63 -1 -16.05 114.80 -15.94 114.70 TC -15.00 114.70 1 16 11
1959 SI WA 12:00:00 TS -15.11 114.71 650 650 O_____P__OP___ jtwc_sh SH271959 -14.70 114.60 -1 -15.77 114.92 -15.70 114.70 TC -14.68 114.71 1 17 0
1959 SI WA 13:00:00 TS -14.82 114.69 bom 672 604 P_____O__PP___ SH271959 -14.41 114.55 -1 -15.50 115.00 -15.43 114.67 TC -14.34 114.67 1 19 350
1959 SI WA 15:00:00 TS -14.20 114.55 604 505 P_____P__PP___ SH271959 -13.83 114.33 -1 -14.84 115.07 -14.84 114.56 TC -13.65 114.47 1 20 341
1959 SI WA 18:00:00 TS -13.29 114.13 506 428 O_____P__PP___ jtwc_sh SH271959 -13.00 113.80 -1 -13.80 114.86 -13.93 114.25 TC -12.71 113.95 1 20 332
1959 SI WA 21:00:00 TS -12.49 113.59 428 406 P_____P__PP___ SH271959 -12.17 113.25 -1 -12.90 114.34 -13.13 113.85 TC -12.06 113.28 1 18 320
1959 SI WA 23:00:00 TS -12.16 113.17 408 399 P_____P__PO___ SH271959 -11.84 112.83 -1 -12.49 113.83 -12.73 113.55 TC -11.90 112.80 1 15 301
1959 SI WA 1959-03-19 00:00:00 TS -12.10 112.94 404 404 O_____P__OP___ jtwc_sh SH271959 -11.80 112.60 -1 -12.36 113.53 -12.60 113.40 TC 20 1004 -11.95 112.59 1 14 274
1959 SI WA 01:00:00 TS -12.13 112.71 1004 bom 410 410 P_____O__PP___ SH271959 -11.86 112.35 -1 -12.30 113.20 1004 -12.58 113.27 TC -12.06 112.36 1 16 249
1959 SI WA 03:00:00 TS -12.39 112.19 451 450 P_____P__PP___ SH271959 -12.23 111.84 -1 -12.35 112.41 -12.69 112.99 TC -12.44 111.90 1 19 231
1959 SI WA 06:00:00 TS -13.13 111.42 527 538 O_____P__PP___ jtwc_sh SH271959 -13.20 111.10 -1 -12.78 111.16 -13.17 112.55 TC -13.32 111.19 1 22 223
1959 SI WA 07:00:00 TS -13.43 111.19 bom 562 562 P_____O__PP___ SH271959 -13.54 110.89 -1 -13.00 110.80 -13.41 112.40 TC -13.67 110.97 1 23 212
1959 SI WA 09:00:00 TS -14.10 110.81 645 656 P_____P__PP___ SH271959 -14.31 110.52 -1 -13.52 110.37 -13.96 112.08 TC -14.42 110.55 1 24 205
1959 SI WA 11:00:00 TS -14.87 110.50 739 739 P_____P__PO___ SH271959 -15.16 110.22 -1 -14.20 110.14 -14.61 111.75 TC -15.20 110.20 1 25 199
1959 SI WA 12:00:00 TS -15.26 110.39 785 729 O_____P__PP___ jtwc_sh SH271959 -15.60 110.10 -1 -14.59 110.07 -14.97 111.58 TC -15.57 110.07 1 26 193
1959 SI WA 15:00:00 TS -16.53 110.12 729 627 P_____P__PP___ SH271959 -16.97 109.85 -1 -15.85 110.03 -16.10 111.08 TC -16.76 109.78 1 26 190
1959 SI WA 18:00:00 TS -17.76 109.92 627 580 O_____P__PP___ jtwc_sh SH271959 -18.20 109.70 -1 -17.17 110.05 -17.28 110.57 TC -17.96 109.60 1 24 190
1959 SI WA 20:00:00 TS -18.48 109.77 bom 580 566 P_____O__PP___ SH271959 -18.84 109.56 -1 -18.00 110.00 -18.04 110.24 TC -18.69 109.52 1 22 192
1959 SI WA 21:00:00 TS -18.81 109.68 566 545 P_____P__PP___ SH271959 -19.10 109.48 -1 -18.40 109.88 -18.41 110.07 TC -19.03 109.48 1 19 196
1959 SI WA 23:00:00 TS -19.38 109.50 545 539 P_____P__PO___ SH271959 -19.53 109.36 -1 -19.15 109.65 -19.09 109.75 TC -19.60 109.40 2 17 197
1959 SI WA 1959-03-20 00:00:00 TS -19.62 109.42 542 532 O_____P__OP___ jtwc_sh SH271959 -19.70 109.30 -1 -19.50 109.56 -19.40 109.60 TC 60 980 -19.80 109.35 2 14 197
1959 SI WA 01:00:00 TS -19.81 109.36 980 bom 532 525 P_____O__PP___ SH271959 -19.85 109.26 -1 -19.80 109.50 980 -19.59 109.46 TC -19.97 109.29 2 11 197
1959 SI WA 03:00:00 TS -20.12 109.26 525 525 P_____P__PP___ SH271959 -20.07 109.21 -1 -20.30 109.49 990 -19.94 109.19 TC -20.23 109.19 2 9 198
1959 SI WA 04:00:00 TS -20.25 109.21 995 bom 528 517 P_____O__PP___ SH271959 -20.16 109.18 -1 -20.50 109.50 995 -20.10 109.06 TC -20.33 109.14 2 8 204
1959 SI WA 06:00:00 TS -20.47 109.09 521 520 O_____P__PP___ jtwc_sh SH271959 -20.30 109.10 -1 -20.88 109.42 -20.39 108.81 TC -20.47 109.04 2 7 213
1959 SI WA 09:00:00 TS -20.76 108.85 525 535 P_____P__PP___ SH271959 -20.56 108.89 -1 -21.32 109.19 -20.76 108.44 TC -20.61 108.85 2 7 222
1959 SI WA 11:00:00 TS -20.93 108.65 540 546 P_____P__PO___ SH271959 -20.72 108.70 -1 -21.52 108.96 -20.98 108.21 TC -20.70 108.70 2 8 228
1959 SI WA 12:00:00 TS -21.01 108.55 555 552 O_____P__PP___ jtwc_sh SH271959 -20.80 108.60 -1 -21.61 108.83 -21.07 108.09 TC -20.79 108.61 2 8 232
1959 SI WA 15:00:00 TS -21.26 108.19 575 575 P_____P__PP___ SH271959 -21.06 108.27 -1 -21.79 108.38 -21.33 107.76 TC -21.06 108.29 2 8 236
1959 SI WA 18:00:00 TS -21.47 107.81 610 610 O_____P__PP___ jtwc_sh SH271959 -21.30 107.90 -1 -21.89 107.88 -21.55 107.43 TC -21.32 107.93 2 8 241
1959 SI WA 21:00:00 TS -21.65 107.43 646 646 P_____P__PP___ SH271959 -21.51 107.55 -1 -21.95 107.36 -21.73 107.11 TC -21.56 107.55 2 8 244
1959 SI WA 23:00:00 TS -21.76 107.17 664 664 P_____P__PO___ SH271959 -21.64 107.32 -1 -21.97 107.02 -21.85 106.90 TC -21.70 107.30 1 8 246
1959 SI WA 1959-03-21 00:00:00 TS -21.81 107.05 685 685 O_____P__OP___ jtwc_sh SH271959 -21.70 107.20 -1 -21.98 106.86 -21.90 106.80 TC 30 1000 -21.76 107.19 1 7 247
1959 SI WA 01:00:00 TS -21.86 106.93 1000 bom 693 693 P_____O__PP___ SH271959 -21.76 107.08 -1 -22.00 106.70 1000 -21.95 106.70 TC -21.82 107.08 1 7 247
1959 SI WA 03:00:00 TS -21.95 106.69 714 712 P_____P__PP___ SH271959 -21.86 106.85 -1 -22.04 106.40 -22.06 106.49 TC -21.93 106.86 1 7 248
1959 SI WA 06:00:00 TS -22.08 106.34 752 752 O_____P__PP___ jtwc_sh SH271959 -22.00 106.50 -1 -22.12 106.00 -22.21 106.17 TC -22.08 106.52 1 7 247
1959 SI WA 09:00:00 TS -22.22 106.00 782 782 P_____P__PP___ SH271959 -22.15 106.16 -1 -22.22 105.64 -22.35 105.86 TC -22.21 106.16 1 7 247
1959 SI WA 11:00:00 TS -22.31 105.77 801 811 P_____P__PO___ SH271959 -22.25 105.93 -1 -22.30 105.42 -22.44 105.65 TC -22.30 105.90 1 7 247
1959 SI WA 12:00:00 TS -22.36 105.63 821 821 O_____P__PP___ jtwc_sh SH271959 -22.30 105.80 -1 -22.34 105.32 -22.49 105.55 TC -22.35 105.76 1 8 248
1959 SI WA 15:00:00 TS -22.51 105.24 862 862 P_____P__PP___ SH271959 -22.45 105.37 -1 -22.48 105.03 -22.62 105.24 TC -22.49 105.32 1 8 247
1959 SI WA 18:00:00 TS -22.66 104.85 886 896 O_____P__PP___ jtwc_sh SH271959 -22.60 104.90 -1 -22.63 104.77 -22.75 104.92 TC -22.64 104.84 1 7 245
1959 SI WA 21:00:00 TS -22.82 104.51 923 923 ______P__PP___ SH271959 -1 -22.78 104.52 -22.87 104.61 TC -22.80 104.34 1 7 243
1959 SI WA 23:00:00 TS -22.92 104.31 941 938 ______P__PO___ SH271959 -1 -22.89 104.36 -22.96 104.40 TC -22.90 104.00 2 5 235
1959 SI WA 1959-03-22 00:00:00 TS -22.96 104.29 938 938 ______P__O____ -1 -22.95 104.28 -23.00 104.30 TC 15 1008 2 4 232
1959 SI WA 01:00:00 NR -23.00 104.20 1008 bom 949 ______O_______ -1 -23.00 104.20 1008 TC 2 5 246